Time;durP1;ratioP1;P1;durP2;ratioP2;P2;SDS_P1;SDS_P2;PMS_P1;PMS_P2;Temp;Humidity;BMP_temperature;BMP_pressure;BME280_temperature;BME280_humidity;BME280_pressure;Samples;Min_cycle;Max_cycle;Signal;HPM_P1;HPM_P2
2022/10/10 00:00:34;;;;;;;8.43;4.95;;;9.10;99.90;;;;;;5090364;28;20036;-46
2022/10/10 00:03:00;;;;;;;10.77;5.32;;;9.20;99.90;;;;;;5088834;28;20511;-46
2022/10/10 00:05:26;;;;;;;8.43;5.32;;;9.10;99.90;;;;;;5090385;28;20048;-48
2022/10/10 00:07:51;;;;;;;8.32;5.18;;;9.10;99.90;;;;;;5090235;28;20040;-46
2022/10/10 00:10:17;;;;;;;8.50;4.97;;;9.10;99.90;;;;;;5088497;28;20391;-47
2022/10/10 00:12:43;;;;;;;9.10;4.53;;;9.10;99.90;;;;;;5090005;28;20075;-47
2022/10/10 00:15:10;;;;;;;9.85;4.70;;;9.10;99.90;;;;;;5090284;28;20072;-46
2022/10/10 00:17:36;;;;;;;8.20;4.47;;;9.10;99.90;;;;;;5090223;28;20044;-44
2022/10/10 00:20:02;;;;;;;8.48;4.95;;;9.10;99.90;;;;;;5090191;28;20050;-45
2022/10/10 00:22:28;;;;;;;8.75;5.55;;;9.10;99.90;;;;;;5090247;28;20475;-44
2022/10/10 00:24:53;;;;;;;8.20;4.72;;;9.10;99.90;;;;;;5090158;28;20108;-44
2022/10/10 00:27:19;;;;;;;8.93;4.57;;;9.10;99.90;;;;;;5089961;28;20036;-44
2022/10/10 00:29:45;;;;;;;6.65;4.13;;;9.10;99.90;;;;;;5090227;28;20044;-45
2022/10/10 00:32:10;;;;;;;9.25;4.95;;;9.10;99.90;;;;;;5089448;28;20052;-43
2022/10/10 00:34:36;;;;;;;8.65;5.00;;;9.10;99.90;;;;;;5090148;28;20044;-44
2022/10/10 00:37:01;;;;;;;9.00;4.72;;;9.10;99.90;;;;;;5089718;28;20043;-44
2022/10/10 00:39:27;;;;;;;6.57;4.28;;;9.10;99.90;;;;;;5089281;28;20040;-46
2022/10/10 00:41:53;;;;;;;10.07;4.85;;;9.10;99.90;;;;;;5090120;28;20043;-44
2022/10/10 00:44:19;;;;;;;7.75;4.63;;;9.00;99.90;;;;;;5089928;28;20036;-44
2022/10/10 00:46:44;;;;;;;6.88;4.68;;;9.10;99.90;;;;;;5071495;28;20165;-44
2022/10/10 00:49:15;;;;;;;8.68;4.88;;;9.10;99.90;;;;;;5089831;28;20048;-46
2022/10/10 00:51:42;;;;;;;9.00;4.70;;;9.20;99.90;;;;;;5089963;28;20043;-44
2022/10/10 00:54:10;;;;;;;11.45;4.90;;;9.10;99.90;;;;;;5089740;28;20044;-45
2022/10/10 00:56:49;;;;;;;8.68;4.65;;;9.10;99.90;;;;;;5089493;28;20035;-49
2022/10/10 00:59:16;;;;;;;8.73;4.63;;;9.10;99.90;;;;;;5091107;28;20078;-46
2022/10/10 01:01:42;;;;;;;7.40;4.72;;;9.00;99.90;;;;;;5075401;28;20036;-45
2022/10/10 01:04:33;;;;;;;6.85;4.55;;;9.10;99.90;;;;;;5093701;28;20040;-45
2022/10/10 01:07:03;;;;;;;9.32;4.40;;;9.10;99.90;;;;;;5093396;28;20048;-48
2022/10/10 01:09:30;;;;;;;8.52;4.82;;;9.00;99.90;;;;;;5091845;28;20557;-44
2022/10/10 01:12:03;;;;;;;8.77;4.85;;;9.10;99.90;;;;;;5093048;28;20048;-44
2022/10/10 01:14:40;;;;;;;7.40;4.30;;;9.00;99.90;;;;;;5092884;28;20552;-45
2022/10/10 01:17:34;;;;;;;8.95;4.88;;;9.00;99.90;;;;;;5093514;28;20263;-46
2022/10/10 01:20:09;;;;;;;10.05;4.90;;;9.00;99.90;;;;;;5091430;28;20044;-47
2022/10/10 01:22:34;;;;;;;9.65;4.82;;;8.90;99.90;;;;;;5093038;28;20136;-47
2022/10/10 01:25:13;;;;;;;8.68;5.10;;;8.90;99.90;;;;;;5093227;28;20126;-45
2022/10/10 01:28:00;;;;;;;12.20;4.82;;;8.90;99.90;;;;;;5092049;28;20368;-46
2022/10/10 01:30:27;;;;;;;12.77;5.25;;;8.90;99.90;;;;;;5060938;28;20079;-47
2022/10/10 01:33:03;;;;;;;7.85;4.90;;;8.90;99.90;;;;;;5092654;28;20052;-46
2022/10/10 01:35:47;;;;;;;10.82;5.35;;;8.90;99.90;;;;;;5093004;28;20055;-44
2022/10/10 01:38:30;;;;;;;9.98;4.95;;;8.80;99.90;;;;;;5092868;28;20044;-46
2022/10/10 01:41:12;;;;;;;9.43;5.28;;;8.80;99.90;;;;;;5092883;28;20028;-46
2022/10/10 01:43:38;;;;;;;8.10;4.78;;;8.80;99.90;;;;;;5092928;28;20039;-46
2022/10/10 01:46:12;;;;;;;8.75;5.10;;;8.80;99.90;;;;;;5092697;28;20386;-44
2022/10/10 01:48:39;;;;;;;10.10;5.05;;;8.80;99.90;;;;;;5092853;28;20364;-45
2022/10/10 01:51:21;;;;;;;9.07;5.05;;;8.80;99.90;;;;;;5090968;28;20059;-44
2022/10/10 01:53:58;;;;;;;7.97;4.93;;;8.80;99.90;;;;;;5092610;28;20043;-44
2022/10/10 01:56:42;;;;;;;9.18;5.63;;;8.70;99.90;;;;;;5092288;28;20047;-45
2022/10/10 01:59:38;;;;;;;11.63;4.97;;;8.70;99.90;;;;;;5092416;28;20112;-43
2022/10/10 02:02:45;;;;;;;8.52;5.38;;;8.70;99.90;;;;;;5090606;28;20094;-46
2022/10/10 02:05:39;;;;;;;10.95;5.00;;;8.70;99.90;;;;;;5090413;28;20048;-48
2022/10/10 02:08:13;;;;;;;8.40;5.15;;;8.70;99.90;;;;;;5092225;28;20040;-47
2022/10/10 02:10:45;;;;;;;9.95;4.93;;;8.60;99.90;;;;;;5091289;28;20505;-43
2022/10/10 02:13:14;;;;;;;9.95;5.03;;;8.60;99.90;;;;;;5092197;28;20036;-46
2022/10/10 02:15:44;;;;;;;10.70;5.50;;;8.70;99.90;;;;;;5092203;28;20032;-46
2022/10/10 02:18:13;;;;;;;11.15;5.50;;;8.60;99.90;;;;;;5090643;28;20048;-46
2022/10/10 02:20:41;;;;;;;9.15;4.97;;;8.60;99.90;;;;;;5092107;28;20471;-45
2022/10/10 02:23:09;;;;;;;11.02;4.70;;;8.60;99.90;;;;;;5091939;28;20044;-44
2022/10/10 02:25:39;;;;;;;10.82;5.30;;;8.60;99.90;;;;;;5091990;28;20040;-44
2022/10/10 02:28:13;;;;;;;9.75;5.15;;;8.60;99.90;;;;;;5091782;28;20028;-43
2022/10/10 02:30:44;;;;;;;10.00;5.65;;;8.60;99.90;;;;;;5091990;28;20036;-45
2022/10/10 02:33:12;;;;;;;8.50;4.72;;;8.70;99.90;;;;;;5091537;28;20048;-44
2022/10/10 02:35:41;;;;;;;9.70;5.75;;;8.50;99.90;;;;;;5091608;28;20028;-44
2022/10/10 02:38:11;;;;;;;8.95;5.00;;;8.60;99.90;;;;;;5091820;28;20059;-44
2022/10/10 02:40:40;;;;;;;11.43;4.60;;;8.50;99.90;;;;;;5088576;28;20059;-44
2022/10/10 02:43:07;;;;;;;9.55;5.38;;;8.50;99.90;;;;;;5089867;28;20036;-44
2022/10/10 02:45:33;;;;;;;9.88;5.35;;;8.40;99.90;;;;;;5091695;28;20483;-45
2022/10/10 02:48:00;;;;;;;11.07;5.18;;;8.40;99.90;;;;;;5090011;28;20044;-46
2022/10/10 02:50:27;;;;;;;8.90;4.78;;;8.40;99.90;;;;;;5091333;28;20123;-45
2022/10/10 02:52:53;;;;;;;8.43;5.22;;;8.40;99.90;;;;;;5091376;28;20036;-45
2022/10/10 02:55:19;;;;;;;10.10;5.00;;;8.30;99.90;;;;;;5091117;28;20544;-45
2022/10/10 02:57:45;;;;;;;10.18;5.13;;;8.40;99.90;;;;;;5091341;28;20044;-48
2022/10/10 03:00:11;;;;;;;9.43;5.50;;;8.30;99.90;;;;;;5091090;28;20058;-44
2022/10/10 03:02:37;;;;;;;9.57;5.20;;;8.40;99.90;;;;;;5091169;28;20085;-46
2022/10/10 03:05:03;;;;;;;9.35;5.75;;;8.30;99.90;;;;;;5090964;28;20478;-44
2022/10/10 03:07:29;;;;;;;10.75;5.63;;;8.40;99.90;;;;;;5091267;28;20057;-45
2022/10/10 03:09:54;;;;;;;8.70;4.78;;;8.40;99.90;;;;;;5090749;28;20032;-45
2022/10/10 03:12:20;;;;;;;10.35;5.63;;;8.40;99.90;;;;;;5091039;28;20052;-45
2022/10/10 03:14:46;;;;;;;10.63;5.70;;;8.30;99.90;;;;;;5091182;28;20767;-46
2022/10/10 03:17:12;;;;;;;8.13;5.30;;;8.30;99.90;;;;;;5090943;28;20028;-43
2022/10/10 03:19:37;;;;;;;9.00;5.15;;;8.30;99.90;;;;;;5090650;28;20517;-46
2022/10/10 03:22:03;;;;;;;10.82;5.65;;;8.40;99.90;;;;;;5090739;28;20040;-46
2022/10/10 03:24:29;;;;;;;9.68;4.93;;;8.30;99.90;;;;;;5090914;28;20483;-44
2022/10/10 03:26:54;;;;;;;8.38;5.60;;;8.40;99.90;;;;;;5090740;28;20088;-44
2022/10/10 03:29:20;;;;;;;8.40;5.38;;;8.30;99.90;;;;;;5090706;28;20048;-45
2022/10/10 03:31:46;;;;;;;8.25;5.00;;;8.30;99.90;;;;;;5090562;28;20124;-45
2022/10/10 03:34:11;;;;;;;8.55;5.28;;;8.30;99.90;;;;;;5090765;28;20040;-44
2022/10/10 03:36:37;;;;;;;9.18;5.38;;;8.30;99.90;;;;;;5090658;28;20101;-48
2022/10/10 03:39:04;;;;;;;11.82;5.72;;;8.40;99.90;;;;;;5090215;28;20072;-47
2022/10/10 03:41:29;;;;;;;9.05;5.63;;;8.30;99.90;;;;;;5090617;28;20035;-45
2022/10/10 03:43:55;;;;;;;8.48;5.22;;;8.40;99.90;;;;;;5090754;28;20033;-44
2022/10/10 03:46:21;;;;;;;9.38;5.78;;;8.40;99.90;;;;;;5090550;28;20044;-44
2022/10/10 03:48:47;;;;;;;8.32;5.40;;;8.40;99.90;;;;;;5090813;28;20032;-45
2022/10/10 03:51:13;;;;;;;11.23;6.05;;;8.40;99.90;;;;;;5090537;28;20040;-46
2022/10/10 03:53:38;;;;;;;11.98;5.60;;;8.30;99.90;;;;;;5090179;28;20123;-44
2022/10/10 03:56:05;;;;;;;9.18;5.85;;;8.30;99.90;;;;;;5090540;28;20036;-44
2022/10/10 03:58:30;;;;;;;12.68;5.38;;;8.40;99.90;;;;;;5090737;28;20040;-44
2022/10/10 04:00:58;;;;;;;9.55;5.68;;;8.30;99.90;;;;;;5089667;28;20064;-45
2022/10/10 04:03:25;;;;;;;11.90;5.43;;;8.30;99.90;;;;;;5090086;28;20032;-44
2022/10/10 04:05:51;;;;;;;8.20;5.30;;;8.30;99.90;;;;;;5090402;28;20032;-46
2022/10/10 04:08:17;;;;;;;10.38;5.47;;;8.30;99.90;;;;;;5090255;28;20054;-44
2022/10/10 04:10:43;;;;;;;10.68;5.90;;;8.40;99.90;;;;;;5088444;28;20028;-45
2022/10/10 04:13:08;;;;;;;9.77;5.60;;;8.40;99.90;;;;;;5072056;28;20034;-46
2022/10/10 04:15:34;;;;;;;9.55;5.65;;;8.30;99.90;;;;;;5090349;28;20051;-46
2022/10/10 04:18:00;;;;;;;14.27;6.43;;;8.30;99.90;;;;;;5090326;28;20503;-45
2022/10/10 04:20:26;;;;;;;11.82;5.78;;;8.30;99.90;;;;;;5089827;28;20540;-47
2022/10/10 04:22:52;;;;;;;10.50;6.05;;;8.30;99.90;;;;;;5090505;28;20044;-44
2022/10/10 04:25:17;;;;;;;9.88;5.72;;;8.20;99.90;;;;;;5090558;28;20039;-47
2022/10/10 04:27:43;;;;;;;11.73;5.95;;;8.20;99.90;;;;;;5089905;28;20078;-43
2022/10/10 04:30:09;;;;;;;7.80;5.60;;;8.20;99.90;;;;;;5090300;28;20071;-46
2022/10/10 04:32:36;;;;;;;9.75;5.95;;;8.20;99.90;;;;;;5089194;28;20543;-46
2022/10/10 04:35:02;;;;;;;9.30;5.57;;;8.10;99.90;;;;;;5091814;28;20036;-46
2022/10/10 04:37:28;;;;;;;12.00;6.50;;;8.10;99.90;;;;;;5094019;28;20467;-46
2022/10/10 04:39:54;;;;;;;8.95;6.00;;;8.10;99.90;;;;;;5093751;28;20115;-45
2022/10/10 04:42:20;;;;;;;11.18;6.13;;;8.20;99.90;;;;;;5094040;28;20047;-47
2022/10/10 04:44:45;;;;;;;10.80;6.00;;;8.10;99.90;;;;;;5092602;28;20042;-45
2022/10/10 04:47:12;;;;;;;9.38;5.80;;;8.00;99.90;;;;;;5094373;28;20115;-47
2022/10/10 04:49:38;;;;;;;9.15;5.68;;;8.00;99.90;;;;;;5094207;28;20459;-48
2022/10/10 04:52:03;;;;;;;9.48;6.03;;;8.10;99.90;;;;;;5094046;28;20220;-47
2022/10/10 04:54:29;;;;;;;10.68;5.63;;;8.00;99.90;;;;;;5093725;28;20119;-46
2022/10/10 04:56:55;;;;;;;11.43;5.85;;;8.10;99.90;;;;;;5093742;28;20490;-44
2022/10/10 04:59:21;;;;;;;11.52;6.03;;;8.10;99.90;;;;;;5093681;28;20081;-45
2022/10/10 05:01:46;;;;;;;9.73;5.68;;;8.00;99.90;;;;;;5093318;28;20097;-44
2022/10/10 05:04:13;;;;;;;11.75;6.63;;;8.00;99.90;;;;;;5093646;28;20032;-48
2022/10/10 05:06:39;;;;;;;10.77;6.30;;;8.10;99.90;;;;;;5093523;28;20054;-45
2022/10/10 05:09:05;;;;;;;14.43;6.60;;;7.90;99.90;;;;;;5093109;28;20115;-44
2022/10/10 05:11:30;;;;;;;11.80;6.45;;;8.00;99.90;;;;;;5093668;28;20039;-44
2022/10/10 05:13:56;;;;;;;9.52;6.13;;;7.90;99.90;;;;;;5094002;28;20035;-47
2022/10/10 05:16:21;;;;;;;10.48;6.22;;;8.00;99.90;;;;;;5093732;28;20563;-45
2022/10/10 05:18:47;;;;;;;9.73;5.40;;;8.00;99.90;;;;;;5093385;28;20078;-46
2022/10/10 05:21:13;;;;;;;10.75;6.50;;;7.90;99.90;;;;;;5093030;28;20052;-45
2022/10/10 05:23:40;;;;;;;12.38;6.82;;;7.90;99.90;;;;;;5093005;28;20047;-45
2022/10/10 05:26:07;;;;;;;9.77;6.47;;;7.90;99.90;;;;;;5093280;28;20396;-48
2022/10/10 05:28:34;;;;;;;9.32;5.57;;;7.90;99.90;;;;;;5092911;28;20071;-45
2022/10/10 05:31:00;;;;;;;9.82;5.95;;;7.80;99.90;;;;;;5092674;28;20032;-45
2022/10/10 05:33:25;;;;;;;12.70;6.63;;;7.80;99.90;;;;;;5092583;28;20048;-46
2022/10/10 05:35:51;;;;;;;10.55;6.68;;;7.80;99.90;;;;;;5092980;28;20031;-44
2022/10/10 05:38:17;;;;;;;14.23;7.32;;;7.70;99.90;;;;;;5092830;28;20052;-45
2022/10/10 05:40:42;;;;;;;10.65;6.55;;;7.80;99.90;;;;;;5090636;28;20078;-49
2022/10/10 05:43:08;;;;;;;11.52;6.22;;;7.80;99.90;;;;;;5092941;28;20040;-47
2022/10/10 05:45:34;;;;;;;12.75;6.95;;;7.80;99.90;;;;;;5092529;28;20409;-46
2022/10/10 05:47:59;;;;;;;10.50;6.93;;;7.60;99.90;;;;;;5092683;28;20043;-47
2022/10/10 05:50:45;;;;;;;9.30;6.32;;;7.70;99.90;;;;;;5092515;28;20465;-44
2022/10/10 05:53:11;;;;;;;11.68;6.50;;;7.70;99.90;;;;;;5091901;28;20388;-45
2022/10/10 05:55:36;;;;;;;9.95;6.10;;;7.70;99.90;;;;;;5092297;28;20043;-45
2022/10/10 05:58:06;;;;;;;12.18;7.13;;;7.70;99.90;;;;;;5092412;28;20039;-46
2022/10/10 06:00:31;;;;;;;12.70;7.00;;;7.60;99.90;;;;;;5090964;28;20048;-45
2022/10/10 06:02:57;;;;;;;13.85;6.80;;;7.70;99.90;;;;;;5092613;28;20035;-43
2022/10/10 06:05:23;;;;;;;11.00;6.20;;;7.60;99.90;;;;;;5092208;28;20032;-47
2022/10/10 06:07:49;;;;;;;11.40;6.78;;;7.60;99.90;;;;;;5092796;28;20093;-44
2022/10/10 06:10:15;;;;;;;11.60;6.88;;;7.60;99.90;;;;;;5092534;28;20437;-46
2022/10/10 06:12:41;;;;;;;11.40;6.88;;;7.60;99.90;;;;;;5092504;28;20051;-45
2022/10/10 06:15:07;;;;;;;12.15;7.10;;;7.60;99.90;;;;;;5092259;28;20044;-43
2022/10/10 06:17:33;;;;;;;11.52;7.15;;;7.60;99.90;;;;;;5092304;28;20466;-47
2022/10/10 06:19:58;;;;;;;10.40;6.30;;;7.50;99.90;;;;;;5091964;28;20039;-45
2022/10/10 06:22:24;;;;;;;11.65;6.80;;;7.60;99.90;;;;;;5091953;28;20040;-48
2022/10/10 06:24:49;;;;;;;11.38;7.07;;;7.60;99.90;;;;;;5091537;28;20050;-43
2022/10/10 06:27:15;;;;;;;13.15;6.82;;;7.60;99.90;;;;;;5091750;28;20042;-45
2022/10/10 06:29:41;;;;;;;14.60;6.85;;;7.70;99.90;;;;;;5091446;28;20067;-47
2022/10/10 06:32:06;;;;;;;10.27;6.70;;;7.70;99.90;;;;;;5091740;28;20056;-44
2022/10/10 06:34:32;;;;;;;13.38;7.18;;;7.60;99.90;;;;;;5092232;28;20067;-45
2022/10/10 06:36:58;;;;;;;12.38;6.25;;;7.70;99.90;;;;;;5091425;28;20028;-49
2022/10/10 06:39:23;;;;;;;10.40;6.22;;;7.60;99.90;;;;;;5091113;28;20070;-45
2022/10/10 06:41:49;;;;;;;12.63;7.40;;;7.80;99.90;;;;;;5091319;28;20039;-44
2022/10/10 06:44:18;;;;;;;11.30;7.07;;;7.80;99.90;;;;;;5091599;28;20090;-46
2022/10/10 06:46:44;;;;;;;13.63;7.70;;;7.80;99.90;;;;;;5091286;28;20086;-46
2022/10/10 06:49:10;;;;;;;10.43;6.38;;;7.80;99.90;;;;;;5091521;28;20027;-46
2022/10/10 06:51:37;;;;;;;11.45;7.43;;;7.80;99.90;;;;;;5091508;28;20047;-44
2022/10/10 06:54:03;;;;;;;13.48;7.30;;;7.80;99.90;;;;;;5090833;28;20036;-46
2022/10/10 06:56:28;;;;;;;11.88;7.22;;;7.90;99.90;;;;;;5091340;28;20047;-48
2022/10/10 06:58:55;;;;;;;11.90;7.18;;;7.90;99.90;;;;;;5090677;28;20024;-46
2022/10/10 07:01:22;;;;;;;15.68;7.15;;;7.90;99.90;;;;;;5091353;28;20561;-45
2022/10/10 07:03:48;;;;;;;12.88;7.40;;;7.90;99.90;;;;;;5091341;28;20043;-49
2022/10/10 07:06:15;;;;;;;14.18;7.72;;;8.10;99.90;;;;;;5091587;28;20415;-46
2022/10/10 07:08:41;;;;;;;9.48;6.47;;;8.10;99.90;;;;;;5091518;28;20119;-47
2022/10/10 07:11:08;;;;;;;12.02;6.97;;;8.10;99.90;;;;;;5090819;28;20036;-46
2022/10/10 07:13:35;;;;;;;10.07;6.53;;;8.10;99.90;;;;;;5089684;28;20032;-46
2022/10/10 07:16:01;;;;;;;11.43;7.78;;;8.10;99.90;;;;;;5090383;28;20129;-44
2022/10/10 07:18:27;;;;;;;12.73;7.47;;;8.20;99.90;;;;;;5090764;28;20032;-46
2022/10/10 07:21:02;;;;;;;12.73;7.53;;;8.20;99.90;;;;;;5090585;28;20468;-46
2022/10/10 07:23:28;;;;;;;12.52;7.43;;;8.30;99.90;;;;;;5082301;28;20475;-49
2022/10/10 07:26:04;;;;;;;9.95;7.10;;;8.30;99.90;;;;;;5082037;28;20044;-44
2022/10/10 07:28:29;;;;;;;15.05;7.70;;;8.20;99.90;;;;;;5082246;28;20506;-47
2022/10/10 07:31:07;;;;;;;12.88;7.10;;;8.40;99.90;;;;;;5081539;28;20090;-48
2022/10/10 07:33:36;;;;;;;11.27;7.05;;;8.40;99.90;;;;;;5082026;28;20132;-44
2022/10/10 07:36:03;;;;;;;10.73;7.22;;;8.40;99.90;;;;;;5082792;28;20025;-48
2022/10/10 07:38:28;;;;;;;12.23;8.10;;;8.50;99.90;;;;;;5081679;28;20475;-46
2022/10/10 07:40:54;;;;;;;13.20;8.27;;;8.70;99.90;;;;;;5081700;28;20035;-49
2022/10/10 07:43:21;;;;;;;11.43;7.90;;;8.70;99.90;;;;;;5083047;28;20039;-48
2022/10/10 07:45:47;;;;;;;13.60;8.68;;;8.80;99.90;;;;;;5082012;28;20148;-45
2022/10/10 07:48:12;;;;;;;12.93;8.02;;;8.90;99.90;;;;;;5080717;28;20411;-44
2022/10/10 07:50:42;;;;;;;13.07;8.07;;;8.90;99.90;;;;;;5083134;28;20441;-45
2022/10/10 07:53:09;;;;;;;11.23;7.95;;;9.00;99.90;;;;;;5082554;28;20610;-44
2022/10/10 07:55:38;;;;;;;12.63;7.68;;;9.20;99.90;;;;;;5082751;28;20040;-47
2022/10/10 07:58:04;;;;;;;10.75;7.50;;;9.20;99.90;;;;;;5082782;28;20032;-47
2022/10/10 08:00:29;;;;;;;12.20;8.60;;;9.30;99.90;;;;;;5082444;28;20130;-45
2022/10/10 08:02:55;;;;;;;14.65;8.60;;;9.50;99.90;;;;;;5082374;28;20036;-44
2022/10/10 08:05:21;;;;;;;12.88;8.85;;;9.80;99.90;;;;;;5082371;28;20069;-46
2022/10/10 08:07:46;;;;;;;15.40;9.20;;;9.70;99.90;;;;;;5080266;28;20047;-46
2022/10/10 08:10:12;;;;;;;14.82;8.95;;;9.80;99.90;;;;;;5080920;28;20048;-43
2022/10/10 08:12:38;;;;;;;15.20;8.02;;;9.90;99.90;;;;;;5083148;28;20040;-47
2022/10/10 08:15:07;;;;;;;12.00;8.00;;;10.00;99.90;;;;;;5080110;28;20068;-46
2022/10/10 08:17:33;;;;;;;14.45;8.30;;;10.20;99.90;;;;;;5081151;28;20115;-45
2022/10/10 08:19:58;;;;;;;13.10;8.68;;;10.30;99.90;;;;;;5077620;28;20169;-47
2022/10/10 08:22:24;;;;;;;10.80;7.70;;;10.40;99.90;;;;;;5080412;28;20036;-46
2022/10/10 08:24:50;;;;;;;16.23;8.30;;;10.60;99.90;;;;;;5081220;28;20055;-48
2022/10/10 08:27:17;;;;;;;13.57;8.23;;;10.60;99.90;;;;;;5076360;28;20111;-47
2022/10/10 08:29:43;;;;;;;11.43;8.00;;;10.80;99.90;;;;;;5081776;28;20036;-46
2022/10/10 08:32:09;;;;;;;11.40;7.40;;;10.90;99.90;;;;;;5081188;28;20055;-45
2022/10/10 08:34:34;;;;;;;12.35;7.88;;;11.10;99.90;;;;;;5082440;28;20036;-47
2022/10/10 08:37:00;;;;;;;16.15;8.20;;;11.20;99.90;;;;;;5078684;28;20115;-45
2022/10/10 08:39:26;;;;;;;14.48;7.63;;;11.40;99.90;;;;;;5078550;28;20024;-47
2022/10/10 08:41:55;;;;;;;15.75;8.43;;;11.40;99.90;;;;;;5077576;28;20119;-49
2022/10/10 08:44:25;;;;;;;13.82;7.90;;;11.40;99.90;;;;;;5079829;28;20036;-45
2022/10/10 08:46:55;;;;;;;16.67;8.15;;;11.50;99.90;;;;;;5081682;28;20088;-46
2022/10/10 08:49:41;;;;;;;13.30;7.78;;;11.70;99.90;;;;;;5081170;28;20044;-43
2022/10/10 08:52:13;;;;;;;12.55;7.45;;;11.90;99.90;;;;;;5079939;28;20089;-47
2022/10/10 08:54:41;;;;;;;11.02;7.35;;;11.90;99.90;;;;;;5080060;28;20039;-46
2022/10/10 08:57:24;;;;;;;11.45;7.45;;;12.00;99.90;;;;;;5081605;28;20094;-46
2022/10/10 08:59:55;;;;;;;10.15;7.22;;;12.00;99.90;;;;;;5081447;28;20552;-48
2022/10/10 09:02:34;;;;;;;13.43;7.22;;;12.10;99.90;;;;;;5081646;28;20044;-47
2022/10/10 09:05:00;;;;;;;12.40;7.63;;;12.10;99.90;;;;;;5079673;28;20044;-45
2022/10/10 09:07:41;;;;;;;12.48;7.43;;;12.30;99.90;;;;;;5079327;28;20038;-45
2022/10/10 09:10:31;;;;;;;11.68;7.80;;;12.50;99.90;;;;;;5080108;28;20068;-49
2022/10/10 09:13:11;;;;;;;14.38;8.90;;;12.80;99.90;;;;;;5079916;28;20036;-48
2022/10/10 09:15:56;;;;;;;13.60;8.45;;;13.10;99.90;;;;;;5079095;28;20040;-49
2022/10/10 09:18:36;;;;;;;11.93;7.68;;;13.30;99.90;;;;;;5078867;28;20036;-47
2022/10/10 09:21:04;;;;;;;10.63;6.75;;;13.40;99.90;;;;;;5081345;28;20042;-47
2022/10/10 09:23:43;;;;;;;12.32;6.90;;;13.30;99.90;;;;;;5082191;28;20077;-52
2022/10/10 09:26:12;;;;;;;11.63;7.65;;;13.30;99.90;;;;;;5083926;28;20065;-45
2022/10/10 09:29:04;;;;;;;11.23;7.13;;;13.40;99.90;;;;;;5083897;28;20395;-48
2022/10/10 09:31:41;;;;;;;12.15;8.18;;;13.60;99.90;;;;;;5083823;28;20040;-47
2022/10/10 09:34:14;;;;;;;10.07;7.30;;;13.70;99.90;;;;;;5083061;28;20048;-48
2022/10/10 09:36:40;;;;;;;13.82;7.93;;;13.60;99.90;;;;;;5082096;28;20040;-42
2022/10/10 09:39:22;;;;;;;12.60;8.07;;;13.60;99.90;;;;;;5083944;28;20028;-44
2022/10/10 09:41:47;;;;;;;11.88;7.40;;;13.60;99.90;;;;;;5083853;28;20066;-46
2022/10/10 09:44:14;;;;;;;15.02;7.60;;;13.60;99.90;;;;;;5081764;28;20048;-47
2022/10/10 09:46:40;;;;;;;11.18;6.93;;;13.60;99.90;;;;;;5080344;28;20033;-45
2022/10/10 09:49:06;;;;;;;12.75;7.50;;;13.70;99.90;;;;;;5085797;28;20032;-46
2022/10/10 09:51:32;;;;;;;13.63;8.10;;;13.70;99.90;;;;;;5076693;28;20032;-44
2022/10/10 09:53:58;;;;;;;16.05;8.05;;;13.90;99.90;;;;;;5082108;28;20101;-45
2022/10/10 09:56:36;;;;;;;14.50;7.85;;;13.90;99.90;;;;;;5082340;28;20032;-46
2022/10/10 09:59:02;;;;;;;14.15;7.88;;;13.90;99.90;;;;;;5079786;28;20368;-44
2022/10/10 10:01:31;;;;;;;13.02;7.35;;;13.90;99.90;;;;;;5080906;28;20031;-44
2022/10/10 10:04:18;;;;;;;9.13;7.40;;;13.90;99.90;;;;;;5079154;28;20054;-44
2022/10/10 10:06:50;;;;;;;10.82;7.60;;;14.10;99.90;;;;;;5080017;28;20925;-44
2022/10/10 10:09:21;;;;;;;12.20;7.57;;;14.10;99.90;;;;;;5079079;28;20044;-47
2022/10/10 10:11:53;;;;;;;13.02;8.10;;;14.10;99.90;;;;;;5079704;28;20076;-43
2022/10/10 10:14:34;;;;;;;11.18;7.68;;;14.10;99.90;;;;;;5082182;28;20044;-47
2022/10/10 10:17:15;;;;;;;12.70;7.72;;;14.40;99.90;;;;;;5079837;28;20039;-48
2022/10/10 10:19:43;;;;;;;12.13;7.05;;;14.50;99.90;;;;;;5081234;28;20107;-45
2022/10/10 10:22:38;;;;;;;11.55;7.40;;;14.70;99.90;;;;;;5081660;28;20032;-43
2022/10/10 10:25:39;;;;;;;;;;;14.80;99.90;;;;;;5082763;28;20085;-44
2022/10/10 10:28:10;;;;;;;13.50;7.75;;;14.70;99.90;;;;;;5021916;28;20015;-46
2022/10/10 10:30:38;;;;;;;11.27;7.25;;;14.70;99.90;;;;;;5065692;28;20044;-48
2022/10/10 10:33:54;;;;;;;13.07;7.18;;;14.70;99.90;;;;;;5081411;28;20178;-45
2022/10/10 10:36:35;;;;;;;12.27;7.30;;;14.50;99.90;;;;;;5053078;28;20806;-42
2022/10/10 10:39:43;;;;;;;12.07;7.20;;;14.50;99.90;;;;;;5082994;28;20064;-43
2022/10/10 10:42:40;;;;;;;14.73;8.18;;;14.50;99.90;;;;;;5048605;28;20079;-47
2022/10/10 10:45:39;;;;;;;10.60;7.47;;;14.40;99.90;;;;;;5080870;28;20056;-46
2022/10/10 10:48:28;;;;;;;11.00;7.65;;;14.30;99.90;;;;;;5083227;28;20046;-48
2022/10/10 10:50:55;;;;;;;11.45;7.50;;;14.30;99.90;;;;;;5082661;28;20036;-47
2022/10/10 10:53:21;;;;;;;13.38;7.57;;;14.30;99.90;;;;;;5081801;28;20200;-47
2022/10/10 10:55:59;;;;;;;10.90;7.68;;;14.40;99.90;;;;;;5082033;28;20162;-46
2022/10/10 10:58:39;;;;;;;14.45;7.47;;;14.50;99.90;;;;;;5082242;28;20028;-46
2022/10/10 11:01:13;;;;;;;12.52;7.60;;;14.50;99.90;;;;;;5080269;28;21050;-47
2022/10/10 11:03:44;;;;;;;15.45;7.13;;;14.60;99.90;;;;;;5081013;28;20478;-46
2022/10/10 11:06:30;;;;;;;14.63;8.10;;;14.70;99.90;;;;;;5080501;28;20047;-47
2022/10/10 11:09:07;;;;;;;12.13;7.90;;;14.70;99.90;;;;;;5081894;28;20115;-44
2022/10/10 11:11:56;;;;;;;10.48;7.05;;;14.70;99.90;;;;;;5080953;28;20028;-44
2022/10/10 11:14:21;;;;;;;11.30;7.63;;;14.70;99.90;;;;;;5080268;28;20115;-46
2022/10/10 11:16:57;;;;;;;12.32;7.20;;;14.70;99.90;;;;;;5080603;28;20111;-48
2022/10/10 11:19:55;;;;;;;12.93;7.78;;;14.50;99.90;;;;;;5080016;28;20028;-45
2022/10/10 11:22:24;;;;;;;13.48;7.68;;;14.50;99.90;;;;;;5075067;28;20411;-50
2022/10/10 11:24:55;;;;;;;13.10;7.55;;;14.40;99.90;;;;;;5083099;28;20119;-48
2022/10/10 11:27:32;;;;;;;10.40;6.90;;;14.40;99.90;;;;;;5079657;28;20063;-45
2022/10/10 11:30:04;;;;;;;14.45;7.93;;;14.40;99.90;;;;;;5087136;28;20036;-48
2022/10/10 11:32:41;;;;;;;11.68;7.22;;;14.50;99.90;;;;;;5080747;28;20052;-49
2022/10/10 11:35:22;;;;;;;11.15;7.43;;;14.50;99.90;;;;;;5071768;28;20483;-48
2022/10/10 11:37:54;;;;;;;10.27;7.40;;;14.50;99.90;;;;;;5080491;28;20032;-48
2022/10/10 11:40:39;;;;;;;12.32;8.30;;;14.50;99.90;;;;;;5080166;28;20028;-48
2022/10/10 11:43:12;;;;;;;14.43;7.85;;;14.50;99.90;;;;;;5076214;28;20043;-43
2022/10/10 11:45:47;;;;;;;14.65;7.78;;;14.50;99.90;;;;;;5077709;28;20413;-45
2022/10/10 11:48:44;;;;;;;13.77;7.43;;;14.40;99.90;;;;;;5078514;28;20174;-45
2022/10/10 11:51:34;;;;;;;12.32;7.13;;;14.50;99.90;;;;;;5072987;28;20479;-45
2022/10/10 11:54:07;;;;;;;12.88;7.50;;;14.50;99.90;;;;;;5080431;28;20040;-49
2022/10/10 11:56:38;;;;;;;12.63;7.97;;;14.40;99.90;;;;;;5080391;28;20371;-46
2022/10/10 11:59:21;;;;;;;12.88;7.50;;;14.50;99.90;;;;;;5080031;28;20034;-49
2022/10/10 12:01:59;;;;;;;15.75;8.27;;;14.40;99.90;;;;;;5076199;28;20074;-49
2022/10/10 12:04:34;;;;;;;15.63;8.20;;;14.40;99.90;;;;;;5079650;28;20047;-45
2022/10/10 12:07:13;;;;;;;15.10;8.63;;;14.40;99.90;;;;;;5077376;28;20044;-45
2022/10/10 12:10:04;;;;;;;16.63;8.55;;;14.50;99.90;;;;;;5077505;28;20127;-48
2022/10/10 12:12:38;;;;;;;15.07;8.57;;;14.50;99.90;;;;;;5078403;28;20036;-45
2022/10/10 12:15:09;;;;;;;12.55;9.43;;;14.50;99.90;;;;;;5080881;28;20093;-45
2022/10/10 12:17:40;;;;;;;15.18;9.82;;;14.30;99.90;;;;;;5080062;28;20040;-44
2022/10/10 12:20:24;;;;;;;16.42;10.02;;;14.30;99.90;;;;;;5080751;28;20041;-48
2022/10/10 12:23:18;;;;;;;16.27;9.82;;;14.30;99.90;;;;;;5078306;28;20040;-47
2022/10/10 12:25:46;;;;;;;15.32;10.70;;;14.20;99.90;;;;;;5079990;28;20113;-49
2022/10/10 12:28:12;;;;;;;18.48;10.43;;;14.00;99.90;;;;;;5080816;28;20525;-47
2022/10/10 12:31:03;;;;;;;15.63;10.70;;;14.10;99.90;;;;;;5081169;28;20044;-46
2022/10/10 12:33:32;;;;;;;13.95;10.40;;;13.90;99.90;;;;;;5076129;28;20087;-46
2022/10/10 12:36:18;;;;;;;15.98;10.65;;;14.00;99.90;;;;;;5079407;28;20043;-44
2022/10/10 12:39:06;;;;;;;16.55;10.85;;;13.90;99.90;;;;;;5048889;28;20055;-44
2022/10/10 12:41:41;;;;;;;16.55;11.38;;;13.80;99.90;;;;;;5080568;28;20067;-44
2022/10/10 12:44:15;;;;;;;19.73;11.73;;;13.80;99.90;;;;;;5079933;28;20533;-48
2022/10/10 12:46:43;;;;;;;18.25;11.88;;;13.70;99.90;;;;;;5078455;28;20051;-46
2022/10/10 12:49:22;;;;;;;16.70;11.38;;;13.90;99.90;;;;;;5080624;28;20047;-49
2022/10/10 12:51:58;;;;;;;17.30;11.55;;;13.80;99.90;;;;;;5079422;28;20045;-48
2022/10/10 12:54:29;;;;;;;21.17;13.45;;;13.80;99.90;;;;;;5080983;28;20040;-46
2022/10/10 12:57:10;;;;;;;19.25;13.00;;;13.70;99.90;;;;;;5084986;28;20032;-43
2022/10/10 12:59:37;;;;;;;18.20;13.18;;;13.70;99.90;;;;;;5084236;28;20028;-48
2022/10/10 13:02:13;;;;;;;22.23;14.57;;;13.70;99.90;;;;;;5083139;28;20067;-44
2022/10/10 13:04:44;;;;;;;21.17;15.05;;;13.70;99.90;;;;;;5085665;28;20063;-47